Time;durP1;ratioP1;P1;durP2;ratioP2;P2;SDS_P1;SDS_P2;PMS_P1;PMS_P2;Temp;Humidity;BMP_temperature;BMP_pressure;BME280_temperature;BME280_humidity;BME280_pressure;Samples;Min_cycle;Max_cycle;Signal;HPM_P1;HPM_P2
2022/11/26 00:04:19;;;;;;;64.50;41.70;;;;;;;6.76;73.25;99564.70;226590;1238;138010;-63
2022/11/26 00:09:24;;;;;;;68.30;41.40;;;;;;;6.79;73.00;99566.67;227877;1227;138209;-63
2022/11/26 00:14:27;;;;;;;64.20;40.40;;;;;;;6.78;73.04;99568.12;226360;1228;138514;-64
2022/11/26 00:19:31;;;;;;;60.70;38.30;;;;;;;6.75;72.90;99567.38;226219;1244;139204;-64
2022/11/26 00:24:34;;;;;;;64.10;39.30;;;;;;;6.73;73.18;99570.77;226260;1236;138864;-65
2022/11/26 00:29:40;;;;;;;61.80;41.30;;;;;;;6.82;73.04;99576.43;226455;1241;139775;-62
2022/11/26 00:34:44;;;;;;;61.00;40.20;;;;;;;6.90;72.88;99580.91;226255;1241;138684;-63
2022/11/26 00:39:48;;;;;;;68.30;41.90;;;;;;;6.93;72.87;99585.38;227278;1242;138632;-63
2022/11/26 00:44:52;;;;;;;68.70;45.50;;;;;;;6.96;72.88;99583.33;226327;1237;139018;-64
2022/11/26 00:49:55;;;;;;;70.50;44.00;;;;;;;7.00;72.87;99588.09;226344;1243;138576;-65
2022/11/26 00:55:14;;;;;;;70.30;44.80;;;;;;;7.02;72.70;99591.38;226301;1235;138270;-65
2022/11/26 01:00:22;;;;;;;72.30;45.10;;;;;;;6.98;72.77;99590.13;227462;1242;138560;-65
2022/11/26 01:05:32;;;;;;;73.90;44.50;;;;;;;6.99;72.81;99596.44;226685;1237;139007;-65
2022/11/26 01:10:36;;;;;;;67.20;42.10;;;;;;;7.02;72.55;99597.38;226719;1238;139461;-64
2022/11/26 01:15:40;;;;;;;65.50;41.90;;;;;;;7.05;72.55;99596.19;226395;1237;139054;-64
2022/11/26 01:20:44;;;;;;;67.40;42.00;;;;;;;7.11;72.43;99603.04;227666;1236;138645;-65
2022/11/26 01:25:48;;;;;;;57.00;38.00;;;;;;;7.16;72.25;99598.60;226288;1235;138426;-63
2022/11/26 01:30:51;;;;;;;56.20;38.40;;;;;;;7.17;71.90;99602.61;226315;1251;138885;-63
2022/11/26 01:35:55;;;;;;;62.80;39.00;;;;;;;7.17;71.85;99605.98;226464;1237;138768;-63
2022/11/26 01:41:15;;;;;;;54.80;34.80;;;;;;;7.14;71.78;99609.27;226281;1229;138599;-63
2022/11/26 01:46:21;;;;;;;56.30;36.30;;;;;;;7.09;71.72;99615.44;227687;1228;138091;-64
2022/11/26 01:51:27;;;;;;;57.30;36.20;;;;;;;7.08;71.87;99615.33;226609;1243;138158;-66
2022/11/26 01:56:39;;;;;;;57.70;36.70;;;;;;;7.08;71.80;99620.05;226387;1244;139291;-65
2022/11/26 02:01:43;;;;;;;61.60;40.10;;;;;;;7.10;71.84;99621.39;226449;1235;138710;-62
2022/11/26 02:06:49;;;;;;;64.50;41.30;;;;;;;7.15;71.66;99626.33;226501;1237;139285;-63
2022/11/26 02:11:56;;;;;;;64.00;42.60;;;;;;;7.15;71.53;99621.05;227996;1226;138555;-62
2022/11/26 02:17:09;;;;;;;66.30;43.30;;;;;;;7.06;71.59;99618.58;226427;1237;138381;-62
2022/11/26 02:22:34;;;;;;;68.50;41.30;;;;;;;6.99;71.71;99615.65;226441;1251;138540;-62
2022/11/26 02:27:51;;;;;;;63.30;40.70;;;;;;;6.91;71.83;99619.66;226397;1251;138022;-64
2022/11/26 02:33:10;;;;;;;63.50;41.60;;;;;;;6.92;71.95;99618.59;226365;1238;138062;-63
2022/11/26 02:38:31;;;;;;;61.90;40.00;;;;;;;6.96;71.73;99621.23;226412;1251;139837;-63
2022/11/26 02:43:37;;;;;;;59.70;38.70;;;;;;;7.02;71.93;99621.56;226184;1244;138966;-62
2022/11/26 02:48:46;;;;;;;67.70;43.10;;;;;;;7.12;71.59;99626.63;226385;1237;139478;-62
2022/11/26 02:53:51;;;;;;;62.80;40.50;;;;;;;7.21;71.35;99631.58;226483;1236;138505;-62
2022/11/26 02:58:56;;;;;;;63.20;41.50;;;;;;;7.25;71.22;99625.08;226385;1251;139525;-62
2022/11/26 03:04:06;;;;;;;60.70;39.30;;;;;;;7.29;71.16;99628.95;227418;1221;138242;-63
2022/11/26 03:09:09;;;;;;;63.20;40.50;;;;;;;7.31;70.93;99628.01;226412;1251;138627;-63
2022/11/26 03:14:13;;;;;;;61.50;40.60;;;;;;;7.26;70.88;99635.61;226339;1237;138262;-62
2022/11/26 03:19:17;;;;;;;63.60;40.40;;;;;;;7.20;71.00;99638.14;226499;1238;138745;-62
2022/11/26 03:24:21;;;;;;;65.20;39.50;;;;;;;7.17;71.24;99635.42;226462;1235;138583;-62
2022/11/26 03:29:24;;;;;;;59.00;36.30;;;;;;;7.17;71.18;99633.86;226437;1234;138675;-64
2022/11/26 03:34:28;;;;;;;56.10;36.90;;;;;;;7.23;71.23;99634.32;226484;1238;138592;-63
2022/11/26 03:39:31;;;;;;;60.40;38.10;;;;;;;7.32;70.99;99641.20;227933;1231;138432;-63
2022/11/26 03:44:35;;;;;;;55.80;36.40;;;;;;;7.34;70.87;99645.36;226630;1243;138867;-64
2022/11/26 03:49:39;;;;;;;55.20;35.20;;;;;;;7.32;70.85;99643.84;227574;1234;138871;-63
2022/11/26 03:54:43;;;;;;;56.40;35.20;;;;;;;7.30;70.97;99648.33;226387;1242;138333;-63
2022/11/26 03:59:47;;;;;;;56.10;36.50;;;;;;;7.27;71.03;99647.74;226768;1238;138191;-63
2022/11/26 04:05:06;;;;;;;48.50;33.20;;;;;;;7.30;71.09;99649.59;226603;1233;137811;-63
2022/11/26 04:10:15;;;;;;;51.10;32.40;;;;;;;7.29;71.13;99652.27;226515;1243;138493;-63
2022/11/26 04:15:21;;;;;;;48.90;31.00;;;;;;;7.26;71.18;99655.02;226407;1236;138412;-62
2022/11/26 04:20:25;;;;;;;49.80;31.30;;;;;;;7.36;71.15;99659.94;226517;1236;139861;-61
2022/11/26 04:25:28;;;;;;;49.50;31.70;;;;;;;7.48;71.01;99660.34;227577;1230;138066;-62
2022/11/26 04:30:33;;;;;;;47.20;30.40;;;;;;;7.53;70.78;99666.69;226394;1243;138624;-63
2022/11/26 04:35:36;;;;;;;46.70;29.60;;;;;;;7.56;70.56;99666.56;226533;1238;138649;-63
2022/11/26 04:40:44;;;;;;;45.60;28.80;;;;;;;7.50;70.53;99666.97;226443;1235;139167;-64
2022/11/26 04:45:48;;;;;;;46.10;29.40;;;;;;;7.46;70.49;99666.97;226065;1235;138481;-64
2022/11/26 04:50:52;;;;;;;45.20;28.90;;;;;;;7.47;70.50;99672.59;226416;1237;139217;-63
2022/11/26 04:55:56;;;;;;;44.20;27.90;;;;;;;7.41;70.44;99679.00;227514;1241;139189;-63
2022/11/26 05:01:00;;;;;;;45.40;26.30;;;;;;;7.38;70.49;99686.86;227682;1236;138392;-63
2022/11/26 05:06:10;;;;;;;41.80;26.60;;;;;;;7.43;70.33;99687.03;227741;1233;140295;-64
2022/11/26 05:11:14;;;;;;;43.90;27.00;;;;;;;7.44;70.03;99691.94;226410;1251;139107;-63
2022/11/26 05:16:17;;;;;;;46.70;29.60;;;;;;;7.42;69.91;99695.71;226295;1235;139181;-66
2022/11/26 05:21:21;;;;;;;116.80;74.90;;;;;;;7.47;70.16;99703.99;226481;1243;138304;-65
2022/11/26 05:26:25;;;;;;;49.90;29.40;;;;;;;7.42;69.64;99707.73;226511;1250;139088;-65
2022/11/26 05:31:29;;;;;;;93.30;60.10;;;;;;;7.23;69.81;99713.71;226462;1251;139409;-65
2022/11/26 05:36:33;;;;;;;47.40;30.10;;;;;;;7.15;70.26;99719.16;226528;1240;138953;-64
2022/11/26 05:41:37;;;;;;;43.60;28.80;;;;;;;7.06;70.15;99723.90;226707;1233;138036;-64
2022/11/26 05:46:42;;;;;;;50.00;31.30;;;;;;;6.98;70.37;99728.80;226621;1242;138487;-64
2022/11/26 05:51:45;;;;;;;46.60;31.60;;;;;;;7.01;70.32;99730.05;226509;1238;139436;-64
2022/11/26 05:56:49;;;;;;;54.70;36.10;;;;;;;7.04;70.27;99741.08;226494;1251;139094;-65
2022/11/26 06:02:00;;;;;;;54.40;34.50;;;;;;;7.06;70.31;99741.35;226609;1227;138601;-64
2022/11/26 06:07:04;;;;;;;52.70;33.50;;;;;;;7.07;69.83;99741.30;226614;1242;139342;-64
2022/11/26 06:12:07;;;;;;;53.30;33.30;;;;;;;6.99;69.54;99742.48;226612;1240;138403;-66
2022/11/26 06:17:11;;;;;;;47.60;32.30;;;;;;;6.83;69.74;99748.71;226503;1238;138350;-65
2022/11/26 06:22:15;;;;;;;147.20;93.90;;;;;;;6.74;69.91;99755.73;226578;1248;138844;-66
2022/11/26 06:27:41;;;;;;;51.80;33.80;;;;;;;6.68;70.06;99762.48;226586;1243;139124;-63
2022/11/26 06:32:48;;;;;;;47.90;32.10;;;;;;;6.62;70.18;99771.48;226467;1248;138151;-63
2022/11/26 06:37:51;;;;;;;43.80;29.00;;;;;;;6.54;70.26;99777.05;227632;1235;138012;-65
2022/11/26 06:42:55;;;;;;;46.00;28.60;;;;;;;6.50;70.33;99777.01;226623;1237;139296;-65
2022/11/26 06:47:59;;;;;;;48.40;31.10;;;;;;;6.51;70.36;99778.38;227658;1234;138682;-65
2022/11/26 06:53:06;;;;;;;50.20;30.30;;;;;;;6.54;70.31;99786.70;227586;1231;139202;-64
2022/11/26 06:58:10;;;;;;;44.70;29.50;;;;;;;6.55;70.29;99780.54;226509;1238;138989;-64
2022/11/26 07:03:14;;;;;;;93.20;58.80;;;;;;;6.56;70.62;99781.20;226524;1234;138900;-63
2022/11/26 07:08:24;;;;;;;47.50;29.70;;;;;;;6.64;70.50;99784.80;226594;1238;139179;-64
2022/11/26 07:13:27;;;;;;;46.30;29.20;;;;;;;6.71;70.33;99795.14;226525;1243;138479;-64
2022/11/26 07:18:31;;;;;;;43.60;26.70;;;;;;;6.76;70.12;99804.15;226495;1233;138433;-64
2022/11/26 07:23:35;;;;;;;40.30;25.00;;;;;;;6.79;70.26;99815.14;226648;1234;138222;-64
2022/11/26 07:28:42;;;;;;;42.70;25.50;;;;;;;6.82;70.20;99814.70;226673;1232;138632;-64
2022/11/26 07:33:57;;;;;;;42.20;26.90;;;;;;;6.81;70.27;99815.27;226504;1241;138835;-63
2022/11/26 07:39:02;;;;;;;39.40;26.50;;;;;;;6.88;70.45;99808.31;227638;1226;138770;-68
2022/11/26 07:44:05;;;;;;;45.40;27.90;;;;;;;6.97;70.29;99814.90;226595;1248;138932;-65
2022/11/26 07:49:09;;;;;;;141.30;90.20;;;;;;;7.11;70.24;99822.52;226599;1243;138690;-64
2022/11/26 07:54:15;;;;;;;44.80;28.10;;;;;;;7.24;70.12;99826.64;226553;1240;139335;-64
2022/11/26 07:59:23;;;;;;;41.70;26.20;;;;;;;7.27;69.75;99826.53;226668;1235;139530;-64
2022/11/26 08:04:35;;;;;;;45.30;27.20;;;;;;;7.23;69.82;99828.27;226540;1241;138813;-63
2022/11/26 08:09:39;;;;;;;41.20;26.30;;;;;;;7.22;70.04;99836.95;226498;1235;138178;-63
2022/11/26 08:14:43;;;;;;;43.80;26.20;;;;;;;7.25;70.12;99839.67;226458;1237;138694;-64
2022/11/26 08:19:49;;;;;;;42.50;24.80;;;;;;;7.33;70.32;99842.21;226496;1240;140593;-64
2022/11/26 08:24:53;;;;;;;43.00;27.10;;;;;;;7.47;70.08;99849.31;226556;1239;138983;-64
2022/11/26 08:30:06;;;;;;;51.50;29.70;;;;;;;7.58;70.68;99854.17;226781;1237;138050;-64
2022/11/26 08:35:11;;;;;;;47.30;27.60;;;;;;;7.71;69.95;99855.29;226479;1241;138784;-65
2022/11/26 08:40:16;;;;;;;;;;;;;;;7.73;69.78;99862.81;227533;1244;138848;-67
2022/11/26 08:45:22;;;;;;;43.10;26.20;;;;;;;7.76;69.65;99866.05;226582;1240;124538;-67
2022/11/26 08:50:27;;;;;;;43.40;26.50;;;;;;;7.75;69.38;99863.98;226547;1237;138350;-63
2022/11/26 08:55:30;;;;;;;43.20;26.80;;;;;;;7.70;69.51;99866.27;226444;1243;138289;-66
2022/11/26 09:00:54;;;;;;;115.90;77.90;;;;;;;7.66;69.52;99870.50;227588;1242;138355;-62
2022/11/26 09:06:02;;;;;;;53.10;28.20;;;;;;;7.74;69.88;99877.42;226503;1232;140171;-65
2022/11/26 09:11:05;;;;;;;42.10;25.20;;;;;;;7.86;69.66;99880.36;226546;1237;140782;-63
2022/11/26 09:16:08;;;;;;;41.90;25.80;;;;;;;7.98;69.58;99881.83;226560;1250;139061;-63
2022/11/26 09:21:12;;;;;;;42.80;26.70;;;;;;;8.10;69.56;99888.83;226562;1240;138394;-64
2022/11/26 09:26:17;;;;;;;45.00;26.00;;;;;;;8.07;68.74;99893.34;226507;1241;138893;-63
2022/11/26 09:31:20;;;;;;;42.50;26.80;;;;;;;7.98;69.24;99893.48;226526;1236;138586;-64
2022/11/26 09:36:27;;;;;;;50.20;29.50;;;;;;;7.95;69.50;99898.04;226400;1248;139730;-64
2022/11/26 09:41:43;;;;;;;53.20;30.60;;;;;;;7.98;69.44;99899.86;226527;1228;139119;-64
2022/11/26 09:46:59;;;;;;;44.70;26.80;;;;;;;7.96;69.40;99894.66;226014;1251;138501;-66
2022/11/26 09:52:21;;;;;;;44.40;27.60;;;;;;;8.00;69.45;99898.57;226287;1244;139209;-67
2022/11/26 09:57:47;;;;;;;45.40;27.70;;;;;;;8.09;69.63;99895.38;226236;1251;139243;-65
2022/11/26 10:02:52;;;;;;;48.40;30.50;;;;;;;8.23;69.45;99895.23;226455;1245;139449;-70
2022/11/26 10:08:21;;;;;;;48.00;27.40;;;;;;;8.23;69.22;99893.98;226353;1241;139996;-67
2022/11/26 10:13:36;;;;;;;40.90;26.60;;;;;;;8.24;69.15;99895.34;226372;1243;139624;-68
2022/11/26 10:18:53;;;;;;;43.70;24.80;;;;;;;8.29;68.88;99898.30;226468;1244;138754;-69
2022/11/26 10:24:03;;;;;;;40.20;27.10;;;;;;;8.25;69.03;99903.62;226485;1251;139649;-69
2022/11/26 10:29:32;;;;;;;38.60;25.20;;;;;;;8.32;69.12;99902.30;227376;1244;138648;-68
2022/11/26 10:34:47;;;;;;;42.80;27.30;;;;;;;8.41;69.02;99895.95;226339;1236;139370;-67
2022/11/26 10:40:22;;;;;;;40.30;25.00;;;;;;;8.51;68.88;99896.77;226414;1251;139211;-67
2022/11/26 10:45:39;;;;;;;41.60;25.90;;;;;;;8.60;68.68;99904.41;226369;1251;139272;-67
2022/11/26 10:50:54;;;;;;;39.60;26.50;;;;;;;8.68;68.61;99904.79;226358;1244;138328;-68
2022/11/26 10:56:00;;;;;;;44.60;27.30;;;;;;;8.63;68.46;99913.48;226225;1250;138814;-67
2022/11/26 11:01:05;;;;;;;40.00;25.00;;;;;;;8.53;68.31;99912.81;226400;1241;138721;-70
2022/11/26 11:06:11;;;;;;;37.70;23.30;;;;;;;8.42;68.35;99913.60;226281;1251;138483;-68
2022/11/26 11:11:21;;;;;;;37.90;25.00;;;;;;;8.37;68.83;99910.95;226165;1233;138660;-70
2022/11/26 11:16:26;;;;;;;42.80;25.60;;;;;;;8.32;68.70;99911.30;227450;1238;138658;-68
2022/11/26 11:21:33;;;;;;;36.50;22.90;;;;;;;8.34;69.02;99908.92;226484;1242;139133;-66
2022/11/26 11:26:43;;;;;;;37.50;25.00;;;;;;;8.41;68.98;99900.55;226437;1242;138852;-66
2022/11/26 11:31:46;;;;;;;39.20;25.90;;;;;;;8.51;69.07;99903.88;226258;1236;139492;-65
2022/11/26 11:37:05;;;;;;;41.60;24.00;;;;;;;8.60;68.93;99906.17;227491;1248;138945;-66
2022/11/26 11:42:28;;;;;;;36.40;23.20;;;;;;;8.71;68.78;99909.45;226591;1238;138496;-67
2022/11/26 11:47:43;;;;;;;38.50;24.00;;;;;;;8.65;68.81;99913.39;226503;1241;138650;-67
2022/11/26 11:52:46;;;;;;;32.90;22.20;;;;;;;8.57;69.04;99919.55;226324;1251;138841;-67
2022/11/26 11:58:08;;;;;;;33.00;22.40;;;;;;;8.61;69.37;99924.54;227464;1237;138883;-68
2022/11/26 12:03:13;;;;;;;32.30;21.60;;;;;;;8.70;69.60;99921.50;226551;1247;139851;-67
2022/11/26 12:08:31;;;;;;;34.90;21.90;;;;;;;8.76;69.66;99919.66;226189;1241;138723;-66
2022/11/26 12:13:47;;;;;;;33.60;22.50;;;;;;;8.80;69.80;99918.27;227205;1236;139226;-66
2022/11/26 12:18:55;;;;;;;;;;;;;;;8.84;69.77;99915.45;227468;1248;138460;-67
2022/11/26 12:24:03;;;;;;;32.60;22.40;;;;;;;8.79;69.84;99919.72;226522;1256;125091;-66
2022/11/26 12:29:25;;;;;;;30.70;20.90;;;;;;;8.77;69.72;99919.45;226535;1255;138386;-66
2022/11/26 12:34:31;;;;;;;31.50;21.10;;;;;;;8.69;70.27;99919.25;226542;1245;140647;-65
2022/11/26 12:39:34;;;;;;;29.20;20.40;;;;;;;8.73;70.20;99919.63;226316;1244;139035;-67
2022/11/26 12:44:43;;;;;;;28.30;19.60;;;;;;;8.75;70.38;99922.01;227426;1241;139521;-65
2022/11/26 12:50:14;;;;;;;29.40;20.80;;;;;;;8.79;70.55;99925.90;226267;1240;138526;-66
2022/11/26 12:55:51;;;;;;;30.80;21.10;;;;;;;8.87;70.28;99927.55;226675;1234;139283;-67
2022/11/26 13:00:55;;;;;;;30.00;22.00;;;;;;;8.84;70.43;99923.97;227399;1249;138913;-67
2022/11/26 13:06:33;;;;;;;29.30;20.30;;;;;;;8.84;70.31;99923.22;227473;1235;139605;-68
2022/11/26 13:11:54;;;;;;;29.40;20.50;;;;;;;8.79;70.46;99928.95;226541;1254;139036;-67
2022/11/26 13:17:06;;;;;;;29.20;20.20;;;;;;;8.72;70.49;99929.05;226410;1249;138936;-67
2022/11/26 13:22:21;;;;;;;28.50;20.00;;;;;;;8.69;70.56;99936.95;226342;1240;138548;-68
2022/11/26 13:27:56;;;;;;;30.50;20.40;;;;;;;8.71;70.73;99940.05;226238;1252;139666;-67
2022/11/26 13:33:45;;;;;;;29.20;21.30;;;;;;;8.79;70.76;99944.15;226589;1252;139365;-68
2022/11/26 13:39:14;;;;;;;38.30;24.90;;;;;;;8.89;70.55;99943.20;226479;1248;139416;-67
2022/11/26 13:44:42;;;;;;;31.70;22.00;;;;;;;8.91;70.52;99941.00;227418;1246;139030;-66
2022/11/26 13:49:54;;;;;;;33.50;22.30;;;;;;;8.89;70.41;99940.90;226147;1245;139120;-67
2022/11/26 13:55:18;;;;;;;33.20;23.00;;;;;;;8.86;70.54;99941.38;226227;1242;139102;-67
2022/11/26 14:00:30;;;;;;;33.20;23.00;;;;;;;8.83;70.50;99937.99;226388;1249;139467;-67
2022/11/26 14:05:48;;;;;;;33.30;21.70;;;;;;;8.82;70.81;99937.32;226217;1240;138430;-66
2022/11/26 14:10:51;;;;;;;36.50;23.10;;;;;;;8.85;70.85;99940.89;226241;1251;138737;-66
2022/11/26 14:15:56;;;;;;;32.70;22.60;;;;;;;8.87;70.97;99941.54;227544;1236;139229;-67
2022/11/26 14:20:59;;;;;;;32.00;22.80;;;;;;;8.88;71.14;99947.86;226583;1240;139448;-66
2022/11/26 14:26:02;;;;;;;36.80;23.70;;;;;;;8.87;71.06;99953.04;227693;1233;138994;-67
2022/11/26 14:31:26;;;;;;;34.80;23.70;;;;;;;8.89;71.38;99950.27;226538;1237;139010;-67
2022/11/26 14:36:30;;;;;;;34.20;21.50;;;;;;;8.91;71.27;99950.56;226595;1238;138470;-67
2022/11/26 14:41:54;;;;;;;36.40;23.90;;;;;;;8.83;71.40;99954.95;227717;1231;139141;-67
2022/11/26 14:47:26;;;;;;;32.60;21.60;;;;;;;8.83;71.54;99958.85;226671;1235;138413;-67
2022/11/26 14:52:37;;;;;;;32.10;21.50;;;;;;;8.81;71.54;99965.28;226354;1238;141017;-68
2022/11/26 14:57:45;;;;;;;33.80;22.30;;;;;;;8.83;71.66;99967.87;226452;1243;139455;-67
2022/11/26 15:02:48;;;;;;;35.90;23.30;;;;;;;8.86;71.56;99968.62;226492;1254;138389;-67
2022/11/26 15:07:56;;;;;;;35.30;24.00;;;;;;;8.84;71.79;99974.91;226639;1248;139185;-67
2022/11/26 15:13:08;;;;;;;38.70;25.10;;;;;;;8.86;71.78;99979.08;227168;1249;139070;-68
2022/11/26 15:18:14;;;;;;;41.00;26.50;;;;;;;8.80;71.60;99984.08;227548;1234;138638;-67
2022/11/26 15:23:18;;;;;;;;;;;;;;;8.74;71.60;99985.73;227239;1244;138550;-68
2022/11/26 15:28:25;;;;;;;41.20;26.90;;;;;;;8.75;71.59;99987.30;226277;1251;126286;-67
2022/11/26 15:33:30;;;;;;;40.80;27.30;;;;;;;8.79;71.71;99991.02;226155;1243;139410;-67
2022/11/26 15:38:36;;;;;;;42.10;27.20;;;;;;;8.85;71.86;99990.27;226241;1246;138533;-67
2022/11/26 15:43:43;;;;;;;43.80;27.50;;;;;;;8.87;71.60;99996.21;226173;1235;138576;-67
2022/11/26 15:48:54;;;;;;;42.20;27.10;;;;;;;8.87;71.35;100000.44;226010;1251;139545;-67
2022/11/26 15:53:58;;;;;;;40.40;26.10;;;;;;;8.83;71.18;99999.20;226403;1241;138863;-67
2022/11/26 15:59:06;;;;;;;39.50;26.70;;;;;;;8.77;71.15;100000.32;227372;1231;140361;-66
2022/11/26 16:04:31;;;;;;;40.80;26.50;;;;;;;8.69;71.55;100005.55;226340;1244;138687;-66
2022/11/26 16:09:34;;;;;;;41.70;26.80;;;;;;;8.75;71.52;100008.00;226176;1237;139347;-66
2022/11/26 16:14:38;;;;;;;45.20;28.00;;;;;;;8.83;71.49;100013.54;226432;1244;139106;-66
2022/11/26 16:19:51;;;;;;;41.50;26.50;;;;;;;8.86;71.45;100019.98;226324;1250;138584;-66
2022/11/26 16:25:04;;;;;;;44.00;26.70;;;;;;;8.87;71.54;100023.28;226159;1236;139420;-66
2022/11/26 16:30:14;;;;;;;41.70;26.70;;;;;;;8.84;71.36;100029.42;226188;1248;139592;-66
2022/11/26 16:35:17;;;;;;;44.90;27.70;;;;;;;8.78;71.42;100032.13;226175;1251;139322;-66
2022/11/26 16:40:41;;;;;;;42.30;27.90;;;;;;;8.69;71.57;100039.54;226126;1237;139285;-66
2022/11/26 16:45:45;;;;;;;41.10;26.10;;;;;;;8.63;71.84;100041.01;226439;1240;139548;-68
2022/11/26 16:50:49;;;;;;;39.90;24.60;;;;;;;8.63;71.99;100044.56;226539;1249;139612;-65
2022/11/26 16:55:52;;;;;;;37.60;25.50;;;;;;;8.67;71.94;100046.35;226263;1239;139342;-65
2022/11/26 17:00:56;;;;;;;42.70;26.30;;;;;;;8.71;71.96;100053.09;227526;1233;138935;-66
2022/11/26 17:06:05;;;;;;;39.70;25.60;;;;;;;8.75;71.96;100054.16;226402;1235;139462;-66
2022/11/26 17:11:12;;;;;;;34.50;21.80;;;;;;;8.74;71.95;100059.69;226684;1242;140156;-65
2022/11/26 17:16:18;;;;;;;32.50;21.10;;;;;;;8.72;71.87;100065.61;226109;1251;138978;-65
2022/11/26 17:21:22;;;;;;;36.10;22.00;;;;;;;8.71;71.59;100069.71;226132;1243;139318;-66
2022/11/26 17:26:25;;;;;;;28.20;19.70;;;;;;;8.63;71.59;100069.48;227315;1234;138327;-66
2022/11/26 17:31:29;;;;;;;29.20;18.80;;;;;;;8.62;71.88;100073.06;226201;1240;138684;-65
2022/11/26 17:36:32;;;;;;;26.10;17.70;;;;;;;8.66;71.74;100078.04;226277;1243;139874;-66
2022/11/26 17:41:39;;;;;;;25.20;16.30;;;;;;;8.69;71.46;100081.65;226265;1229;138461;-65
2022/11/26 17:46:42;;;;;;;27.60;17.70;;;;;;;8.68;71.46;100088.23;226524;1243;138843;-66
2022/11/26 17:52:06;;;;;;;27.30;16.60;;;;;;;8.63;71.41;100092.12;226642;1249;138772;-65
2022/11/26 17:57:14;;;;;;;24.40;15.70;;;;;;;8.60;71.10;100091.55;226178;1238;140350;-67
2022/11/26 18:02:18;;;;;;;24.50;14.40;;;;;;;8.52;71.20;100098.73;226216;1251;139017;-66
2022/11/26 18:07:21;;;;;;;22.50;15.50;;;;;;;8.43;71.10;100105.23;227561;1234;139668;-65
2022/11/26 18:12:26;;;;;;;19.10;13.80;;;;;;;8.36;71.22;100109.20;227651;1243;138601;-65
2022/11/26 18:17:30;;;;;;;23.40;14.80;;;;;;;8.33;71.52;100109.13;226113;1243;139214;-65
2022/11/26 18:22:33;;;;;;;25.70;15.00;;;;;;;8.35;71.13;100108.67;226023;1244;138993;-65
2022/11/26 18:27:36;;;;;;;20.50;13.40;;;;;;;8.37;70.73;100110.59;226380;1237;138659;-65
2022/11/26 18:32:40;;;;;;;23.40;13.80;;;;;;;8.42;69.92;100109.02;226434;1230;139011;-64
2022/11/26 18:37:43;;;;;;;22.40;13.40;;;;;;;8.43;69.52;100102.79;226246;1235;139739;-65
2022/11/26 18:42:51;;;;;;;21.00;13.40;;;;;;;8.40;69.09;100109.23;226268;1231;139135;-65
2022/11/26 18:47:55;;;;;;;21.80;13.80;;;;;;;8.34;68.59;100110.13;227282;1231;138578;-65
2022/11/26 18:52:58;;;;;;;23.80;14.60;;;;;;;8.31;68.71;100123.69;226193;1234;139144;-64
2022/11/26 18:58:01;;;;;;;22.10;14.50;;;;;;;8.26;68.77;100129.85;227616;1232;139166;-65
2022/11/26 19:03:12;;;;;;;22.80;14.50;;;;;;;8.23;68.60;100135.60;226157;1242;139696;-65
2022/11/26 19:08:15;;;;;;;23.10;13.90;;;;;;;8.19;68.56;100141.92;226115;1235;138483;-66
2022/11/26 19:13:18;;;;;;;33.90;22.70;;;;;;;8.17;68.25;100146.96;226026;1240;139997;-67
2022/11/26 19:18:24;;;;;;;24.80;15.00;;;;;;;8.21;68.33;100154.08;226519;1241;138967;-67
2022/11/26 19:23:28;;;;;;;26.30;15.30;;;;;;;8.23;68.01;100163.76;226304;1251;139284;-66
2022/11/26 19:28:32;;;;;;;25.20;17.30;;;;;;;8.22;67.95;100168.90;226101;1241;139160;-65
2022/11/26 19:33:36;;;;;;;27.00;16.50;;;;;;;8.22;67.89;100173.48;226263;1251;139233;-67
2022/11/26 19:38:39;;;;;;;30.50;17.20;;;;;;;8.21;67.61;100178.48;226521;1251;138838;-65
2022/11/26 19:43:43;;;;;;;30.90;16.50;;;;;;;8.17;67.13;100189.57;226360;1234;139230;-65
2022/11/26 19:48:48;;;;;;;24.40;15.80;;;;;;;8.10;66.95;100199.88;226319;1237;138791;-66
2022/11/26 19:53:53;;;;;;;24.70;15.70;;;;;;;8.06;67.23;100198.76;226637;1236;138562;-68
2022/11/26 19:58:59;;;;;;;26.60;17.10;;;;;;;8.00;67.22;100206.40;227304;1231;138829;-66
2022/11/26 20:04:07;;;;;;;28.90;16.90;;;;;;;7.95;67.00;100210.44;226324;1241;139084;-68
2022/11/26 20:09:14;;;;;;;28.40;18.50;;;;;;;7.89;67.15;100212.39;226196;1238;139674;-64
2022/11/26 20:14:21;;;;;;;30.50;18.20;;;;;;;7.94;67.01;100215.63;227467;1231;140006;-65
2022/11/26 20:19:28;;;;;;;29.70;18.60;;;;;;;7.97;67.02;100221.52;226163;1236;138924;-65
2022/11/26 20:24:35;;;;;;;29.90;19.10;;;;;;;7.96;66.66;100224.20;227419;1242;139073;-68
2022/11/26 20:29:38;;;;;;;34.50;19.50;;;;;;;7.93;66.46;100232.43;226095;1243;139096;-67
2022/11/26 20:34:43;;;;;;;33.50;19.80;;;;;;;7.87;66.22;100240.58;226161;1240;138939;-65
2022/11/26 20:40:00;;;;;;;32.00;19.30;;;;;;;7.77;66.08;100246.70;226267;1241;140079;-64
2022/11/26 20:45:43;;;;;;;36.60;21.00;;;;;;;7.77;66.20;100247.23;226276;1243;140634;-65
2022/11/26 20:51:35;;;;;;;33.80;19.90;;;;;;;7.75;66.31;100253.98;227170;1244;138517;-66
2022/11/26 20:57:38;;;;;;;35.20;19.00;;;;;;;7.61;66.25;100253.38;226203;1230;138610;-66
2022/11/26 21:03:03;;;;;;;31.50;18.40;;;;;;;7.51;66.32;100254.38;227305;1229;138544;-66
2022/11/26 21:08:09;;;;;;;30.60;17.30;;;;;;;7.43;66.09;100255.33;226300;1251;138459;-66
2022/11/26 21:13:15;;;;;;;28.80;16.50;;;;;;;7.35;66.11;100256.80;227514;1243;139406;-68
2022/11/26 21:18:19;;;;;;;27.70;16.00;;;;;;;7.27;66.18;100254.92;227484;1235;138975;-67
2022/11/26 21:23:22;;;;;;;24.60;14.60;;;;;;;7.22;66.18;100258.24;226212;1235;138526;-66
2022/11/26 21:28:26;;;;;;;25.20;15.70;;;;;;;7.17;66.06;100253.27;226123;1245;139857;-66
2022/11/26 21:33:29;;;;;;;26.40;15.20;;;;;;;7.17;65.90;100259.45;226190;1234;139557;-65
2022/11/26 21:38:33;;;;;;;25.70;15.00;;;;;;;7.24;65.63;100260.65;226455;1244;139170;-67
2022/11/26 21:43:37;;;;;;;28.80;16.40;;;;;;;7.29;65.07;100266.86;226234;1240;138549;-66
2022/11/26 21:48:40;;;;;;;26.10;15.00;;;;;;;7.27;64.56;100269.39;226180;1241;138821;-70
2022/11/26 21:53:45;;;;;;;20.70;12.40;;;;;;;7.39;67.73;100276.45;227646;1231;139448;-69
2022/11/26 21:58:52;;;;;;;26.60;14.70;;;;;;;8.04;66.80;100280.14;226451;1234;139677;-66
2022/11/26 22:04:03;;;;;;;23.20;15.30;;;;;;;7.78;64.62;100283.78;227241;1230;138708;-67
2022/11/26 22:09:06;;;;;;;24.60;13.90;;;;;;;7.54;64.56;100293.67;226404;1251;138480;-67
2022/11/26 22:14:13;;;;;;;24.10;14.20;;;;;;;7.40;64.59;100293.39;227450;1233;138689;-68
2022/11/26 22:19:17;;;;;;;21.40;13.40;;;;;;;7.26;64.23;100296.05;226461;1224;138909;-65
2022/11/26 22:24:20;;;;;;;21.70;13.40;;;;;;;7.18;63.92;100301.59;226298;1236;138559;-65
2022/11/26 22:29:23;;;;;;;25.40;15.30;;;;;;;7.12;63.67;100304.40;226289;1243;139824;-65
2022/11/26 22:34:28;;;;;;;20.80;13.30;;;;;;;7.03;63.98;100308.71;226474;1236;138589;-65
2022/11/26 22:39:31;;;;;;;19.80;12.10;;;;;;;7.00;64.49;100314.45;226537;1234;138817;-66
2022/11/26 22:44:35;;;;;;;19.10;11.10;;;;;;;6.96;64.50;100316.48;226182;1243;138928;-65
2022/11/26 22:49:38;;;;;;;20.20;11.70;;;;;;;6.91;64.03;100320.85;226239;1238;141058;-65
2022/11/26 22:54:43;;;;;;;19.20;11.00;;;;;;;6.86;64.22;100319.92;226503;1241;138993;-66
2022/11/26 22:59:46;;;;;;;20.10;11.90;;;;;;;6.81;63.86;100315.83;226321;1249;138358;-66
2022/11/26 23:04:51;;;;;;;19.00;10.30;;;;;;;6.77;63.77;100318.76;226234;1227;139375;-65
2022/11/26 23:09:57;;;;;;;17.10;9.80;;;;;;;6.71;63.77;100319.41;227225;1229;140174;-65
2022/11/26 23:15:01;;;;;;;18.00;9.70;;;;;;;6.69;63.58;100321.77;226306;1238;138859;-67
2022/11/26 23:20:06;;;;;;;15.00;9.40;;;;;;;6.67;63.27;100321.13;226439;1235;138640;-66